Time,TemperatureF,DewpointF,PressureIn,WindDirection,WindDirectionDegrees,WindSpeedMPH,WindSpeedGustMPH,Humidity,HourlyPrecipIn,Conditions,Clouds,dailyrainin,SoftwareType,DateUTC
2013-03-06 00:03:00,40.9,29.0,29.97,SSE,163,3.0,3.0,63,0.00,,,0.00,weatherlink.com 1.10,2013-03-06 05:03:00,
2013-03-06 00:18:00,40.9,29.0,29.97,SSW,200,2.0,3.0,64,0.00,,,0.00,weatherlink.com 1.10,2013-03-06 05:18:00,
2013-03-06 00:33:00,41.0,30.0,29.96,SSW,210,0.0,3.0,65,0.00,,,0.00,weatherlink.com 1.10,2013-03-06 05:33:00,
2013-03-06 00:48:00,40.9,31.0,29.96,South,191,3.0,5.0,67,0.00,,,0.00,weatherlink.com 1.10,2013-03-06 05:48:00,
2013-03-06 01:03:00,40.8,31.0,29.96,SSW,204,0.0,4.0,68,0.00,,,0.00,weatherlink.com 1.10,2013-03-06 06:03:00,
2013-03-06 01:18:00,40.6,32.0,29.95,SSW,210,2.0,5.0,70,0.00,,,0.00,weatherlink.com 1.10,2013-03-06 06:18:00,
2013-03-06 01:33:00,40.6,32.0,29.96,SW,221,2.0,5.0,71,0.00,,,0.00,weatherlink.com 1.10,2013-03-06 06:33:00,
2013-03-06 01:48:00,40.4,32.0,29.95,SSW,205,0.0,2.0,71,0.00,,,0.00,weatherlink.com 1.10,2013-03-06 06:48:00,
2013-03-06 02:03:00,40.4,32.0,29.95,SW,217,0.0,4.0,71,0.00,,,0.00,weatherlink.com 1.10,2013-03-06 07:03:00,
2013-03-06 02:18:00,40.3,32.0,29.94,SW,221,1.0,5.0,72,0.00,,,0.00,weatherlink.com 1.10,2013-03-06 07:18:00,
2013-03-06 02:33:00,40.3,32.0,29.93,SW,232,0.0,4.0,73,0.00,,,0.00,weatherlink.com 1.10,2013-03-06 07:33:00,
2013-03-06 02:48:00,40.2,32.0,29.92,SW,221,0.0,5.0,73,0.00,,,0.00,weatherlink.com 1.10,2013-03-06 07:48:00,
2013-03-06 03:03:00,40.1,32.0,29.92,SW,232,2.0,4.0,73,0.00,,,0.00,weatherlink.com 1.10,2013-03-06 08:03:00,
2013-03-06 03:18:00,40.0,32.0,29.91,NW,316,1.0,4.0,73,0.00,,,0.00,weatherlink.com 1.10,2013-03-06 08:18:00,
2013-03-06 03:33:00,39.5,32.0,29.90,WNW,283,4.0,5.0,74,0.00,,,0.00,weatherlink.com 1.10,2013-03-06 08:33:00,
2013-03-06 03:48:00,39.2,32.0,29.90,WSW,242,3.0,7.0,75,0.00,,,0.00,weatherlink.com 1.10,2013-03-06 08:48:00,
2013-03-06 04:03:00,38.9,32.0,29.90,WSW,252,1.0,8.0,75,0.00,,,0.00,weatherlink.com 1.10,2013-03-06 09:03:00,
2013-03-06 04:18:00,38.7,32.0,29.91,West,267,5.0,6.0,76,0.00,,,0.00,weatherlink.com 1.10,2013-03-06 09:18:00,
2013-03-06 04:33:00,38.7,32.0,29.91,West,263,3.0,6.0,76,0.00,,,0.00,weatherlink.com 1.10,2013-03-06 09:33:00,
2013-03-06 04:48:00,38.9,32.0,29.91,West,264,4.0,7.0,76,0.00,,,0.00,weatherlink.com 1.10,2013-03-06 09:48:00,
2013-03-06 05:03:00,38.9,32.0,29.90,WSW,249,4.0,6.0,76,0.00,,,0.00,weatherlink.com 1.10,2013-03-06 10:03:00,
2013-03-06 05:18:00,39.0,32.0,29.90,SSW,203,1.0,9.0,75,0.00,,,0.00,weatherlink.com 1.10,2013-03-06 10:18:00,
2013-03-06 05:33:00,39.0,32.0,29.90,SW,232,5.0,11.0,75,0.00,,,0.00,weatherlink.com 1.10,2013-03-06 10:33:00,
2013-03-06 05:48:00,39.1,32.0,29.89,West,281,2.0,7.0,75,0.00,,,0.00,weatherlink.com 1.10,2013-03-06 10:48:00,
2013-03-06 06:04:00,39.2,32.0,29.89,WSW,257,1.0,5.0,75,0.00,,,0.00,weatherlink.com 1.10,2013-03-06 11:04:00,
2013-03-06 06:18:00,39.2,32.0,29.90,WNW,289,4.0,6.0,76,0.00,,,0.00,weatherlink.com 1.10,2013-03-06 11:18:00,
2013-03-06 06:33:00,38.8,33.0,29.89,West,278,2.0,7.0,79,0.00,,,0.00,weatherlink.com 1.10,2013-03-06 11:33:00,
2013-03-06 06:48:00,38.8,33.0,29.89,West,281,3.0,10.0,80,0.00,,,0.00,weatherlink.com 1.10,2013-03-06 11:48:00,
2013-03-06 07:03:00,38.7,33.0,29.88,SW,231,0.0,9.0,80,0.00,,,0.00,weatherlink.com 1.10,2013-03-06 12:03:00,
2013-03-06 07:18:00,38.5,33.0,29.88,SW,221,2.0,9.0,81,0.00,,,0.00,weatherlink.com 1.10,2013-03-06 12:18:00,
2013-03-06 07:33:00,38.4,33.0,29.88,West,267,1.0,9.0,81,0.00,,,0.00,weatherlink.com 1.10,2013-03-06 12:33:00,
2013-03-06 07:48:00,38.5,33.0,29.89,West,276,2.0,10.0,82,0.00,,,0.00,weatherlink.com 1.10,2013-03-06 12:48:00,
2013-03-06 08:03:00,38.6,33.0,29.90,West,278,4.0,11.0,81,0.00,,,0.00,weatherlink.com 1.10,2013-03-06 13:03:00,
2013-03-06 08:18:00,38.6,34.0,29.90,WNW,283,2.0,13.0,83,0.00,,,0.00,weatherlink.com 1.10,2013-03-06 13:18:00,
2013-03-06 08:34:00,38.9,34.0,29.90,NW,323,4.0,11.0,81,0.00,,,0.00,weatherlink.com 1.10,2013-03-06 13:34:00,
2013-03-06 08:49:00,39.0,33.0,29.90,WSW,256,3.0,11.0,80,0.00,,,0.00,weatherlink.com 1.10,2013-03-06 13:49:00,
2013-03-06 09:04:00,39.0,33.0,29.90,WSW,257,4.0,13.0,80,0.00,,,0.00,weatherlink.com 1.10,2013-03-06 14:04:00,
2013-03-06 09:19:00,39.2,34.0,29.89,West,280,5.0,11.0,80,0.00,,,0.00,weatherlink.com 1.10,2013-03-06 14:19:00,
2013-03-06 09:34:00,39.2,34.0,29.89,West,271,3.0,8.0,80,0.00,,,0.00,weatherlink.com 1.10,2013-03-06 14:34:00,
2013-03-06 09:49:00,39.2,34.0,29.89,SSW,210,4.0,10.0,81,0.00,,,0.00,weatherlink.com 1.10,2013-03-06 14:49:00,
2013-03-06 10:04:00,39.2,34.0,29.88,SSW,193,2.0,8.0,82,0.00,,,0.00,weatherlink.com 1.10,2013-03-06 15:04:00,
2013-03-06 10:19:00,39.4,34.0,29.89,WSW,249,6.0,11.0,82,0.00,,,0.00,weatherlink.com 1.10,2013-03-06 15:19:00,
2013-03-06 10:34:00,39.7,34.0,29.88,NW,305,4.0,12.0,81,0.00,,,0.00,weatherlink.com 1.10,2013-03-06 15:34:00,
2013-03-06 10:49:00,39.8,34.0,29.88,West,278,6.0,12.0,81,0.00,,,0.00,weatherlink.com 1.10,2013-03-06 15:49:00,
2013-03-06 11:04:00,39.9,35.0,29.87,NNW,330,3.0,13.0,81,0.00,,,0.00,weatherlink.com 1.10,2013-03-06 16:04:00,
2013-03-06 11:19:00,40.4,35.0,29.87,West,266,1.0,12.0,80,0.00,,,0.00,weatherlink.com 1.10,2013-03-06 16:19:00,
2013-03-06 11:34:00,40.4,35.0,29.86,SW,230,5.0,11.0,82,0.00,,,0.00,weatherlink.com 1.10,2013-03-06 16:34:00,
2013-03-06 11:49:00,40.6,36.0,29.87,NNW,328,4.0,12.0,83,0.00,,,0.00,weatherlink.com 1.10,2013-03-06 16:49:00,
2013-03-06 12:04:00,40.1,35.0,29.86,WNW,302,2.0,13.0,82,0.00,,,0.00,weatherlink.com 1.10,2013-03-06 17:04:00,
2013-03-06 12:19:00,40.9,35.0,29.86,WSW,251,6.0,13.0,78,0.00,,,0.00,weatherlink.com 1.10,2013-03-06 17:19:00,
2013-03-06 12:34:00,41.5,34.0,29.86,SSW,210,2.0,14.0,74,0.00,,,0.00,weatherlink.com 1.10,2013-03-06 17:34:00,
2013-03-06 12:49:00,41.1,34.0,29.86,SW,222,3.0,18.0,75,0.00,,,0.00,weatherlink.com 1.10,2013-03-06 17:49:00,
2013-03-06 13:04:00,41.2,34.0,29.86,WSW,258,6.0,12.0,74,0.00,,,0.00,weatherlink.com 1.10,2013-03-06 18:04:00,
2013-03-06 13:19:00,41.0,33.0,29.86,NNW,328,3.0,12.0,72,0.00,,,0.00,weatherlink.com 1.10,2013-03-06 18:19:00,
2013-03-06 13:49:00,41.3,33.0,29.86,SW,225,6.0,14.0,71,0.00,,,0.00,weatherlink.com 1.10,2013-03-06 18:49:00,
2013-03-06 14:04:00,40.7,32.0,29.85,WNW,284,7.0,14.0,72,0.00,,,0.00,weatherlink.com 1.10,2013-03-06 19:04:00,
2013-03-06 14:19:00,41.4,32.0,29.85,West,271,5.0,11.0,70,0.00,,,0.00,weatherlink.com 1.10,2013-03-06 19:19:00,
2013-03-06 14:34:00,40.9,33.0,29.86,WNW,300,4.0,10.0,73,0.00,,,0.00,weatherlink.com 1.10,2013-03-06 19:34:00,
2013-03-06 14:49:00,41.2,32.0,29.85,NNW,340,11.0,13.0,71,0.00,,,0.00,weatherlink.com 1.10,2013-03-06 19:49:00,
2013-03-06 15:04:00,40.8,33.0,29.85,WNW,284,6.0,9.0,75,0.00,,,0.00,weatherlink.com 1.10,2013-03-06 20:04:00,
2013-03-06 15:19:00,40.3,34.0,29.85,NW,314,1.0,10.0,78,0.00,,,0.00,weatherlink.com 1.10,2013-03-06 20:19:00,
2013-03-06 15:49:00,39.0,34.0,29.86,NNW,328,5.0,16.0,81,0.00,,,0.00,weatherlink.com 1.10,2013-03-06 20:49:00,
2013-03-06 16:04:00,39.5,33.0,29.87,NNW,347,7.0,11.0,76,0.00,,,0.00,weatherlink.com 1.10,2013-03-06 21:04:00,
2013-03-06 16:19:00,40.2,32.0,29.87,WNW,302,3.0,11.0,72,0.00,,,0.00,weatherlink.com 1.10,2013-03-06 21:19:00,
2013-03-06 16:34:00,40.4,32.0,29.87,NNW,330,6.0,11.0,71,0.00,,,0.00,weatherlink.com 1.10,2013-03-06 21:34:00,
2013-03-06 16:49:00,40.8,31.0,29.87,NNW,342,6.0,14.0,68,0.00,,,0.00,weatherlink.com 1.10,2013-03-06 21:49:00,
2013-03-06 17:04:00,41.2,31.0,29.87,NNW,345,8.0,10.0,66,0.00,,,0.00,weatherlink.com 1.10,2013-03-06 22:04:00,
2013-03-06 17:19:00,41.4,30.0,29.88,NNE,31,5.0,13.0,65,0.00,,,0.00,weatherlink.com 1.10,2013-03-06 22:19:00,
2013-03-06 17:34:00,41.5,30.0,29.88,NNW,344,9.0,14.0,65,0.00,,,0.00,weatherlink.com 1.10,2013-03-06 22:34:00,
2013-03-06 17:49:00,41.5,30.0,29.87,WNW,303,2.0,15.0,65,0.00,,,0.00,weatherlink.com 1.10,2013-03-06 22:49:00,
2013-03-06 18:04:00,41.3,30.0,29.87,WNW,283,4.0,13.0,65,0.00,,,0.00,weatherlink.com 1.10,2013-03-06 23:04:00,
2013-03-06 18:19:00,41.3,30.0,29.89,NNE,24,4.0,14.0,65,0.00,,,0.00,weatherlink.com 1.10,2013-03-06 23:19:00,
2013-03-06 18:34:00,41.4,30.0,29.89,NW,319,3.0,15.0,64,0.00,,,0.00,weatherlink.com 1.10,2013-03-06 23:34:00,
2013-03-06 18:49:00,41.3,29.0,29.90,NNW,337,8.0,17.0,63,0.00,,,0.00,weatherlink.com 1.10,2013-03-06 23:49:00,
2013-03-06 19:04:00,41.1,30.0,29.90,NW,305,15.0,15.0,64,0.00,,,0.00,weatherlink.com 1.10,2013-03-07 00:04:00,
2013-03-06 19:19:00,40.8,30.0,29.90,WNW,295,5.0,16.0,65,0.00,,,0.00,weatherlink.com 1.10,2013-03-07 00:19:00,
2013-03-06 19:34:00,40.5,30.0,29.91,North,1,2.0,10.0,66,0.00,,,0.00,weatherlink.com 1.10,2013-03-07 00:34:00,
2013-03-06 19:49:00,40.1,30.0,29.91,NNE,30,4.0,12.0,67,0.00,,,0.00,weatherlink.com 1.10,2013-03-07 00:49:00,
2013-03-06 20:04:00,39.8,30.0,29.92,NNW,345,7.0,14.0,67,0.00,,,0.00,weatherlink.com 1.10,2013-03-07 01:04:00,
2013-03-06 20:19:00,39.7,29.0,29.92,NW,317,4.0,17.0,67,0.00,,,0.00,weatherlink.com 1.10,2013-03-07 01:19:00,
2013-03-06 20:34:00,39.2,30.0,29.93,NNE,30,4.0,13.0,69,0.00,,,0.00,weatherlink.com 1.10,2013-03-07 01:34:00,
2013-03-06 20:49:00,38.8,30.0,29.92,WNW,283,7.0,14.0,70,0.00,,,0.00,weatherlink.com 1.10,2013-03-07 01:49:00,
2013-03-06 21:04:00,38.4,30.0,29.93,NNW,344,4.0,13.0,72,0.00,,,0.00,weatherlink.com 1.10,2013-03-07 02:04:00,
2013-03-06 21:19:00,38.0,30.0,29.93,South,180,3.0,18.0,74,0.00,,,0.00,weatherlink.com 1.10,2013-03-07 02:19:00,
2013-03-06 21:34:00,37.9,30.0,29.92,NNW,328,4.0,14.0,72,0.00,,,0.00,weatherlink.com 1.10,2013-03-07 02:34:00,
2013-03-06 21:49:00,38.5,29.0,29.92,NNE,19,3.0,14.0,69,0.00,,,0.00,weatherlink.com 1.10,2013-03-07 02:49:00,
2013-03-06 22:04:00,38.7,29.0,29.92,NW,321,6.0,15.0,67,0.00,,,0.00,weatherlink.com 1.10,2013-03-07 03:04:00,
2013-03-06 22:19:00,38.8,28.0,29.92,West,267,6.0,15.0,66,0.00,,,0.00,weatherlink.com 1.10,2013-03-07 03:19:00,
2013-03-06 22:34:00,38.8,28.0,29.93,NNE,23,5.0,11.0,66,0.00,,,0.00,weatherlink.com 1.10,2013-03-07 03:34:00,
2013-03-06 22:49:00,38.9,28.0,29.93,NNW,348,9.0,10.0,65,0.00,,,0.00,weatherlink.com 1.10,2013-03-07 03:49:00,
2013-03-06 23:04:00,38.9,28.0,29.93,North,354,6.0,17.0,65,0.00,,,0.00,weatherlink.com 1.10,2013-03-07 04:04:00,
2013-03-06 23:19:00,38.8,28.0,29.93,NNW,328,5.0,11.0,65,0.00,,,0.00,weatherlink.com 1.10,2013-03-07 04:19:00,
2013-03-06 23:34:00,38.8,28.0,29.93,NW,315,6.0,13.0,65,0.00,,,0.00,weatherlink.com 1.10,2013-03-07 04:34:00,
2013-03-06 23:49:00,38.8,27.0,29.92,NW,310,6.0,9.0,64,0.00,,,0.00,weatherlink.com 1.10,2013-03-07 04:49:00,